createdAt,value
2022-09-11T00:01:29.315Z,101432.78
2022-09-11T00:03:57.327Z,101431.34
2022-09-11T00:06:30.131Z,101438.13
2022-09-11T00:09:01.909Z,101444.63
2022-09-11T00:11:33.153Z,101445.78
2022-09-11T00:14:01.949Z,101441.78
2022-09-11T00:16:32.940Z,101444.75
2022-09-11T00:19:03.136Z,101453.09
2022-09-11T00:21:31.405Z,101453.50
2022-09-11T00:24:01.123Z,101458.28
2022-09-11T00:26:29.637Z,101455.13
2022-09-11T00:28:58.094Z,101453.00
2022-09-11T00:31:28.055Z,101455.25
2022-09-11T00:33:56.238Z,101448.69
2022-09-11T00:36:26.018Z,101461.91
2022-09-11T00:38:54.391Z,101459.59
2022-09-11T00:41:26.625Z,101453.03
2022-09-11T00:43:59.349Z,101460.00
2022-09-11T00:46:34.438Z,101450.56
2022-09-11T00:49:07.892Z,101448.56
2022-09-11T00:51:37.954Z,101442.00
2022-09-11T00:54:06.365Z,101451.81
2022-09-11T00:56:39.150Z,101440.56
2022-09-11T00:59:08.047Z,101438.69
2022-09-11T01:01:37.475Z,101436.72
2022-09-11T01:04:07.081Z,101444.66
2022-09-11T01:06:35.169Z,101437.22
2022-09-11T01:09:03.777Z,101442.78
2022-09-11T01:11:48.703Z,101437.56
2022-09-11T01:14:34.322Z,101435.84
2022-09-11T01:17:16.251Z,101433.44
2022-09-11T01:20:05.632Z,101430.75
2022-09-11T01:22:53.389Z,101432.59
2022-09-11T01:25:28.670Z,101419.25
2022-09-11T01:28:01.098Z,101416.22
2022-09-11T01:30:34.243Z,101412.00
2022-09-11T01:33:11.863Z,101414.69
2022-09-11T01:35:50.760Z,101402.03
2022-09-11T01:38:24.923Z,101403.88
2022-09-11T01:40:55.817Z,101409.97
2022-09-11T01:43:29.550Z,101400.16
2022-09-11T01:46:01.584Z,101407.56
2022-09-11T01:48:33.180Z,101399.16
2022-09-11T01:51:04.603Z,101389.34
2022-09-11T01:53:38.182Z,101389.34
2022-09-11T01:56:10.990Z,101384.34
2022-09-11T01:58:43.718Z,101380.25
2022-09-11T02:01:16.114Z,101372.13
2022-09-11T02:03:49.421Z,101365.59
2022-09-11T02:06:21.590Z,101372.81
2022-09-11T02:08:54.568Z,101374.53
2022-09-11T02:11:22.853Z,101364.69
2022-09-11T02:13:59.935Z,101362.00
2022-09-11T02:16:41.114Z,101354.91
2022-09-11T02:19:12.257Z,101359.00
2022-09-11T02:21:40.825Z,101361.69
2022-09-11T02:24:09.553Z,101350.59
2022-09-11T02:26:43.427Z,101344.56
2022-09-11T02:29:13.601Z,101347.66
2022-09-11T02:31:43.846Z,101347.38
2022-09-11T02:34:14.446Z,101354.47
2022-09-11T02:37:03.271Z,101355.84
2022-09-11T02:39:49.936Z,101355.69
2022-09-11T02:42:31.138Z,101356.38
2022-09-11T02:45:11.017Z,101358.09
2022-09-11T02:47:47.466Z,101357.94
2022-09-11T02:50:28.438Z,101352.69
2022-09-11T02:53:02.645Z,101357.63
2022-09-11T02:55:44.122Z,101360.47
2022-09-11T02:58:18.825Z,101358.59
2022-09-11T03:00:48.413Z,101363.72
2022-09-11T03:03:16.645Z,101362.41
2022-09-11T03:05:44.751Z,101363.25
2022-09-11T03:08:14.733Z,101361.38
2022-09-11T03:10:43.110Z,101353.25
2022-09-11T03:13:11.243Z,101352.97
2022-09-11T03:15:39.280Z,101350.25
2022-09-11T03:18:08.740Z,101349.63
2022-09-11T03:20:36.973Z,101341.34
2022-09-11T03:23:11.351Z,101339.16
2022-09-11T03:25:39.749Z,101340.53
2022-09-11T03:28:08.078Z,101334.13
2022-09-11T03:30:36.484Z,101331.09
2022-09-11T03:33:05.171Z,101317.59
2022-09-11T03:35:35.122Z,101322.66
2022-09-11T03:38:03.467Z,101321.81
2022-09-11T03:40:31.932Z,101321.28
2022-09-11T03:42:59.932Z,101312.00
2022-09-11T03:45:28.178Z,101319.09
2022-09-11T03:47:57.014Z,101309.84
2022-09-11T03:50:25.106Z,101315.56
2022-09-11T03:52:54.782Z,101304.72
2022-09-11T03:55:23.611Z,101309.84
2022-09-11T03:57:51.645Z,101302.69
2022-09-11T04:00:19.686Z,101301.53
2022-09-11T04:02:47.768Z,101313.75
2022-09-11T04:05:15.832Z,101309.19
2022-09-11T04:07:43.833Z,101303.75
2022-09-11T04:10:13.657Z,101308.88
2022-09-11T04:12:42.062Z,101309.53
2022-09-11T04:15:10.938Z,101312.25
2022-09-11T04:17:39.371Z,101312.25
2022-09-11T04:20:08.195Z,101307.69
2022-09-11T04:22:36.119Z,101310.56
2022-09-11T04:25:04.272Z,101303.47
2022-09-11T04:27:33.752Z,101306.16
2022-09-11T04:30:01.710Z,101300.03
2022-09-11T04:32:30.316Z,101296.31
2022-09-11T04:34:58.294Z,101294.63
2022-09-11T04:37:26.413Z,101300.88
2022-09-11T04:39:54.627Z,101304.44
2022-09-11T04:42:22.699Z,101304.13
2022-09-11T04:44:52.346Z,101302.91
2022-09-11T04:47:21.194Z,101301.41
2022-09-11T04:49:49.926Z,101303.97
2022-09-11T04:52:18.265Z,101296.53
2022-09-11T04:54:46.598Z,101280.44
2022-09-11T04:57:14.575Z,101301.09
2022-09-11T04:59:42.723Z,101290.97
2022-09-11T05:02:12.640Z,101283.69
2022-09-11T05:04:41.748Z,101291.63
2022-09-11T05:07:13.505Z,101299.75
2022-09-11T05:09:41.699Z,101301.47
2022-09-11T05:12:10.705Z,101307.56
2022-09-11T05:14:38.722Z,101307.88
2022-09-11T05:17:06.835Z,101294.19
2022-09-11T05:19:36.201Z,101303.84
2022-09-11T05:22:04.393Z,101304.19
2022-09-11T05:24:32.456Z,101306.72
2022-09-11T05:27:01.208Z,101306.19
2022-09-11T05:29:32.536Z,101308.03
2022-09-11T05:32:01.269Z,101308.22
2022-09-11T05:34:29.955Z,101304.50
2022-09-11T05:36:59.858Z,101302.81
2022-09-11T05:39:27.947Z,101297.03
2022-09-11T05:41:56.609Z,101295.88
2022-09-11T05:44:24.653Z,101305.03
2022-09-11T05:46:52.662Z,101288.91
2022-09-11T05:49:22.080Z,101291.63
2022-09-11T05:51:50.139Z,101299.06
2022-09-11T05:54:19.729Z,101303.16
2022-09-11T05:56:47.679Z,101287.94
2022-09-11T05:59:16.443Z,101296.72
2022-09-11T06:01:44.416Z,101289.81
2022-09-11T06:04:13.578Z,101287.59
2022-09-11T06:06:41.620Z,101290.16
2022-09-11T06:09:09.816Z,101291.69
2022-09-11T06:11:39.241Z,101288.66
2022-09-11T06:14:07.203Z,101296.31
2022-09-11T06:16:35.359Z,101289.34
2022-09-11T06:19:06.045Z,101289.88
2022-09-11T06:21:34.192Z,101295.81
2022-09-11T06:24:02.336Z,101296.50
2022-09-11T06:26:30.822Z,101288.56
2022-09-11T06:29:00.539Z,101296.84
2022-09-11T06:31:30.071Z,101289.41
2022-09-11T06:33:58.031Z,101290.28
2022-09-11T06:36:27.893Z,101286.91
2022-09-11T06:38:57.544Z,101299.94
2022-09-11T06:41:26.573Z,101296.41
2022-09-11T06:43:55.009Z,101296.53
2022-09-11T06:46:26.055Z,101297.06
2022-09-11T06:48:56.403Z,101300.13
2022-09-11T06:51:24.664Z,101297.25
2022-09-11T06:53:58.154Z,101300.66
2022-09-11T06:56:26.307Z,101308.28
2022-09-11T06:58:54.584Z,101302.50
2022-09-11T07:01:24.673Z,101301.88
2022-09-11T07:03:55.606Z,101295.78
2022-09-11T07:06:25.713Z,101286.81
2022-09-11T07:08:56.806Z,101297.47
2022-09-11T07:11:24.980Z,101297.13
2022-09-11T07:13:53.124Z,101312.25
2022-09-11T07:16:21.725Z,101308.50
2022-09-11T07:18:51.242Z,101307.53
2022-09-11T07:21:22.215Z,101297.69
2022-09-11T07:23:52.121Z,101296.00
2022-09-11T07:26:20.290Z,101300.06
2022-09-11T07:28:48.944Z,101301.75
2022-09-11T07:31:21.051Z,101306.47
2022-09-11T07:33:52.107Z,101307.13
2022-09-11T07:36:21.577Z,101307.63
2022-09-11T07:38:51.040Z,101304.88
2022-09-11T07:41:22.093Z,101312.84
2022-09-11T07:43:54.799Z,101315.22
2022-09-11T07:46:24.514Z,101310.94
2022-09-11T07:48:54.088Z,101305.34
2022-09-11T07:51:22.180Z,101308.22
2022-09-11T07:53:51.640Z,101298.50
2022-09-11T07:56:21.453Z,101295.38
2022-09-11T07:58:50.040Z,101294.13
2022-09-11T08:01:21.538Z,101310.22
2022-09-11T08:03:50.527Z,101297.31
2022-09-11T08:06:22.528Z,101297.28
2022-09-11T08:08:54.373Z,101301.81
2022-09-11T08:11:23.062Z,101306.84
2022-09-11T08:13:52.387Z,101297.19
2022-09-11T08:16:21.184Z,101292.34
2022-09-11T08:18:49.721Z,101289.25
2022-09-11T08:21:19.765Z,101291.13
2022-09-11T08:23:49.118Z,101293.44
2022-09-11T08:26:19.444Z,101293.53
2022-09-11T08:28:48.156Z,101303.69
2022-09-11T08:31:16.473Z,101291.97
2022-09-11T08:33:45.815Z,101294.63
2022-09-11T08:36:15.431Z,101291.72
2022-09-11T08:38:48.044Z,101293.03
2022-09-11T08:41:31.942Z,101283.00
2022-09-11T08:44:04.375Z,101287.56
2022-09-11T08:46:36.387Z,101289.53
2022-09-11T08:49:12.131Z,101289.16
2022-09-11T08:51:41.031Z,101290.09
2022-09-11T08:54:23.248Z,101295.63
2022-09-11T08:56:53.043Z,101295.38
2022-09-11T08:59:30.934Z,101294.34
2022-09-11T09:02:13.104Z,101297.25
2022-09-11T09:04:59.351Z,101293.69
2022-09-11T09:07:37.693Z,101290.22
2022-09-11T09:10:17.584Z,101296.41
2022-09-11T09:12:54.454Z,101295.50
2022-09-11T09:15:32.714Z,101309.69
2022-09-11T09:18:04.037Z,101305.16
2022-09-11T09:20:36.057Z,101301.84
2022-09-11T09:23:08.321Z,101295.47
2022-09-11T09:25:41.662Z,101287.16
2022-09-11T09:28:19.555Z,101294.38
2022-09-11T09:30:52.572Z,101298.28
2022-09-11T09:33:30.904Z,101294.97
2022-09-11T09:36:04.154Z,101298.09
2022-09-11T09:38:32.740Z,101289.38
2022-09-11T09:41:28.599Z,101280.59
2022-09-11T09:44:05.064Z,101282.38
2022-09-11T09:46:44.687Z,101286.44
2022-09-11T09:49:22.364Z,101282.91
2022-09-11T09:51:51.288Z,101273.94
2022-09-11T09:54:23.403Z,101275.31
2022-09-11T09:56:59.966Z,101277.22
2022-09-11T09:59:33.655Z,101278.84
2022-09-11T10:02:02.136Z,101271.94
2022-09-11T10:04:30.676Z,101277.66
2022-09-11T10:07:10.795Z,101270.38
2022-09-11T10:09:46.810Z,101262.84
2022-09-11T10:12:19.864Z,101258.06
2022-09-11T10:14:54.571Z,101260.00
2022-09-11T10:17:25.475Z,101261.31
2022-09-11T10:19:57.182Z,101249.78
2022-09-11T10:22:34.174Z,101257.38
2022-09-11T10:25:11.882Z,101254.69
2022-09-11T10:28:04.722Z,101254.47
2022-09-11T10:30:37.886Z,101250.94
2022-09-11T10:33:16.214Z,101245.06
2022-09-11T10:35:53.233Z,101242.16
2022-09-11T10:38:22.661Z,101243.44
2022-09-11T10:41:09.508Z,101246.38
2022-09-11T10:43:45.197Z,101253.97
2022-09-11T10:46:26.176Z,101246.56
2022-09-11T10:48:56.091Z,101246.16
2022-09-11T10:51:25.247Z,101251.44
2022-09-11T10:54:08.669Z,101245.94
2022-09-11T10:56:46.089Z,101234.13
2022-09-11T10:59:23.151Z,101234.53
2022-09-11T11:01:51.529Z,101233.84
2022-09-11T11:04:21.910Z,101230.22
2022-09-11T11:06:58.184Z,101220.50
2022-09-11T11:09:38.536Z,101224.69
2022-09-11T11:12:23.481Z,101224.63
2022-09-11T11:15:21.902Z,101218.25
2022-09-11T11:17:59.172Z,101224.34
2022-09-11T11:20:35.335Z,101210.16
2022-09-11T11:23:20.029Z,101210.97
2022-09-11T11:25:57.969Z,101211.34
2022-09-11T11:28:44.329Z,101214.72
2022-09-11T11:31:28.937Z,101206.03
2022-09-11T11:34:31.884Z,101204.31
2022-09-11T11:37:07.540Z,101199.69
2022-09-11T11:39:43.705Z,101199.22
2022-09-11T11:42:18.164Z,101195.22
2022-09-11T11:44:51.530Z,101195.09
2022-09-11T11:47:26.173Z,101181.75
2022-09-11T11:50:02.735Z,101202.97
2022-09-11T11:52:50.848Z,101195.69
2022-09-11T11:55:22.426Z,101195.13
2022-09-11T11:57:59.396Z,101189.03
2022-09-11T12:00:30.273Z,101199.50
2022-09-11T12:03:11.251Z,101196.91
2022-09-11T12:05:40.504Z,101192.66
2022-09-11T12:08:14.466Z,101190.25
2022-09-11T12:10:47.846Z,101195.00
2022-09-11T12:13:17.916Z,101197.81
2022-09-11T12:16:05.705Z,101189.03
2022-09-11T12:18:38.028Z,101188.47
2022-09-11T12:21:41.775Z,101194.06
2022-09-11T12:24:18.012Z,101190.63
2022-09-11T12:26:47.579Z,101201.47
2022-09-11T12:29:52.046Z,101199.47
2022-09-11T12:32:30.049Z,101195.50
2022-09-11T12:35:15.411Z,101189.00
2022-09-11T12:37:46.167Z,101185.41
2022-09-11T12:40:20.599Z,101173.00
2022-09-11T12:42:58.083Z,101174.66
2022-09-11T12:45:38.756Z,101180.16
2022-09-11T12:48:10.975Z,101173.38
2022-09-11T12:50:41.754Z,101166.59
2022-09-11T12:53:19.441Z,101166.16
2022-09-11T12:55:56.571Z,101165.03
2022-09-11T12:58:31.235Z,101154.53
2022-09-11T13:01:08.503Z,101148.94
2022-09-11T13:03:48.861Z,101151.75
2022-09-11T13:06:18.724Z,101158.59
2022-09-11T13:08:51.811Z,101152.81
2022-09-11T13:11:43.621Z,101144.88
2022-09-11T13:14:48.796Z,101142.97
2022-09-11T13:17:33.950Z,101142.72
2022-09-11T13:20:22.701Z,101143.78
2022-09-11T13:22:58.149Z,101133.88
2022-09-11T13:25:29.403Z,101136.94
2022-09-11T13:28:02.408Z,101138.38
2022-09-11T13:30:30.890Z,101127.66
2022-09-11T13:33:07.712Z,101125.06
2022-09-11T13:35:40.560Z,101123.72
2022-09-11T13:38:14.807Z,101122.16
2022-09-11T13:40:47.049Z,101118.81
2022-09-11T13:43:18.373Z,101120.38
2022-09-11T13:45:46.763Z,101112.41
2022-09-11T13:48:21.739Z,101111.84
2022-09-11T13:50:51.145Z,101111.91
2022-09-11T13:53:22.421Z,101108.75
2022-09-11T13:55:50.794Z,101101.50
2022-09-11T13:58:29.645Z,101100.03
2022-09-11T14:00:58.780Z,101095.19
2022-09-11T14:03:29.599Z,101092.31
2022-09-11T14:05:59.803Z,101085.81
2022-09-11T14:08:34.449Z,101089.81
2022-09-11T14:11:11.143Z,101083.09
2022-09-11T14:13:44.638Z,101074.50
2022-09-11T14:16:23.957Z,101080.81
2022-09-11T14:18:55.879Z,101070.16
2022-09-11T14:21:27.091Z,101075.16
2022-09-11T14:23:58.275Z,101075.41
2022-09-11T14:26:40.810Z,101067.59
2022-09-11T14:29:24.277Z,101060.63
2022-09-11T14:31:53.281Z,101064.19
2022-09-11T14:34:23.151Z,101060.56
2022-09-11T14:36:55.360Z,101065.78
2022-09-11T14:39:29.835Z,101057.56
2022-09-11T14:41:59.162Z,101063.66
2022-09-11T14:44:28.132Z,101057.75
2022-09-11T14:46:57.744Z,101052.03
2022-09-11T14:49:26.153Z,101053.50
2022-09-11T14:51:58.236Z,101046.31
2022-09-11T14:54:31.204Z,101054.31
2022-09-11T14:56:59.769Z,101040.88
2022-09-11T14:59:29.821Z,101047.81
2022-09-11T15:01:58.634Z,101032.00
2022-09-11T15:04:27.474Z,101030.75
2022-09-11T15:06:56.594Z,101030.72
2022-09-11T15:09:25.595Z,101021.59
2022-09-11T15:11:55.176Z,101015.00
2022-09-11T15:14:45.152Z,101016.53
2022-09-11T15:17:13.512Z,101020.81
2022-09-11T15:19:41.732Z,101017.41
2022-09-11T15:22:11.679Z,101013.47
2022-09-11T15:24:39.703Z,101009.25
2022-09-11T15:27:10.470Z,101010.69
2022-09-11T15:29:39.857Z,101005.47
2022-09-11T15:32:09.470Z,101012.69
2022-09-11T15:34:38.817Z,101002.63
2022-09-11T15:37:07.423Z,101002.50
2022-09-11T15:39:35.852Z,100996.66
2022-09-11T15:42:04.404Z,100996.31
2022-09-11T15:44:37.809Z,100997.19
2022-09-11T15:47:07.418Z,100995.13
2022-09-11T15:49:41.290Z,100997.03
2022-09-11T15:52:11.870Z,101001.66
2022-09-11T15:54:40.322Z,100988.81
2022-09-11T15:57:08.888Z,100990.47
2022-09-11T15:59:40.234Z,100989.22
2022-09-11T16:02:09.281Z,100984.22
2022-09-11T16:04:37.815Z,100982.34
2022-09-11T16:07:06.091Z,100980.25
2022-09-11T16:09:38.539Z,100973.25
2022-09-11T16:12:07.632Z,100977.44
2022-09-11T16:14:38.518Z,100972.81
2022-09-11T16:17:08.132Z,100965.38
2022-09-11T16:19:38.647Z,100977.28
2022-09-11T16:22:08.902Z,100967.31
2022-09-11T16:24:38.477Z,100968.78
2022-09-11T16:27:08.506Z,100966.66
2022-09-11T16:30:11.430Z,100959.44
2022-09-11T16:32:29.370Z,100954.13
2022-09-11T16:34:59.835Z,100953.44
2022-09-11T16:37:32.938Z,100957.63
2022-09-11T16:40:02.095Z,100956.72
2022-09-11T16:42:30.576Z,100951.47
2022-09-11T16:45:00.264Z,100958.78
2022-09-11T16:47:30.521Z,100961.16
2022-09-11T16:50:07.872Z,100955.03
2022-09-11T16:52:36.849Z,100954.22
2022-09-11T16:55:06.480Z,100955.88
2022-09-11T16:57:35.214Z,100955.84
2022-09-11T17:00:05.957Z,100959.31
2022-09-11T17:02:34.635Z,100945.41
2022-09-11T17:05:03.746Z,100951.63
2022-09-11T17:07:32.472Z,100944.16
2022-09-11T17:10:00.885Z,100944.72
2022-09-11T17:12:29.174Z,100943.13
2022-09-11T17:14:57.527Z,100933.28
2022-09-11T17:17:27.093Z,100941.53
2022-09-11T17:19:55.262Z,100932.09
2022-09-11T17:22:23.252Z,100932.13
2022-09-11T17:24:51.461Z,100942.13
2022-09-11T17:27:19.642Z,100941.16
2022-09-11T17:29:48.431Z,100950.22
2022-09-11T17:32:29.332Z,100941.25
2022-09-11T17:34:59.760Z,100941.84
2022-09-11T17:37:28.632Z,100936.63
2022-09-11T17:39:58.175Z,100935.13
2022-09-11T17:42:29.063Z,100940.41
2022-09-11T17:45:00.161Z,100943.41
2022-09-11T17:47:32.193Z,100940.06
2022-09-11T17:50:05.019Z,100932.94
2022-09-11T17:52:34.874Z,100941.56
2022-09-11T17:55:03.146Z,100937.16
2022-09-11T17:57:31.438Z,100936.72
2022-09-11T18:03:08.644Z,100920.97
2022-09-11T18:05:43.180Z,100927.28
2022-09-11T18:08:11.317Z,100922.03
2022-09-11T18:10:40.052Z,100929.34
2022-09-11T18:13:09.415Z,100930.84
2022-09-11T18:15:37.491Z,100927.88
2022-09-11T18:18:05.705Z,100927.81
2022-09-11T18:20:43.471Z,100924.47
2022-09-11T18:23:12.831Z,100923.59
2022-09-11T18:25:42.020Z,100924.81
2022-09-11T18:28:11.051Z,100925.03
2022-09-11T18:30:41.520Z,100925.19
2022-09-11T18:33:11.309Z,100924.13
2022-09-11T18:35:41.003Z,100923.91
2022-09-11T18:38:09.176Z,100932.25
2022-09-11T18:40:37.384Z,100939.31
2022-09-11T18:43:06.429Z,100935.09
2022-09-11T18:45:36.409Z,100941.38
2022-09-11T18:48:05.251Z,100939.91
2022-09-11T18:50:45.114Z,100933.78
2022-09-11T18:53:15.014Z,100936.28
2022-09-11T18:55:43.405Z,100943.00
2022-09-11T18:58:11.907Z,100945.50
2022-09-11T19:00:41.295Z,100935.41
2022-09-11T19:03:09.443Z,100938.72
2022-09-11T19:05:38.005Z,100935.94
2022-09-11T19:08:07.593Z,100956.47
2022-09-11T19:10:35.721Z,100955.63
2022-09-11T19:13:03.883Z,100960.81
2022-09-11T19:15:32.352Z,100965.44
2022-09-11T19:18:01.582Z,100964.59
2022-09-11T19:20:30.072Z,100959.09
2022-09-11T19:23:02.818Z,100957.00
2022-09-11T19:25:33.704Z,100954.94
2022-09-11T19:28:02.352Z,100957.00
2022-09-11T19:30:31.706Z,100961.16
2022-09-11T19:33:00.446Z,100963.25
2022-09-11T19:35:28.716Z,100966.63
2022-09-11T19:37:57.001Z,100965.94
2022-09-11T19:40:25.141Z,100961.13
2022-09-11T19:42:55.101Z,100973.41
2022-09-11T19:45:24.117Z,100972.78
2022-09-11T19:47:52.752Z,100973.63
2022-09-11T19:50:22.699Z,100977.56
2022-09-11T19:52:50.776Z,100978.63
2022-09-11T19:55:18.906Z,100980.88
2022-09-11T19:57:47.005Z,100992.44
2022-09-11T20:00:16.797Z,100992.06
2022-09-11T20:02:51.632Z,100985.31
2022-09-11T20:05:19.673Z,100987.81
2022-09-11T20:07:47.862Z,100994.06
2022-09-11T20:10:16.464Z,100984.66
2022-09-11T20:12:44.518Z,100986.06
2022-09-11T20:15:13.871Z,100979.41
2022-09-11T20:17:44.746Z,100976.88
2022-09-11T20:20:13.343Z,100980.25
2022-09-11T20:22:41.445Z,100978.56
2022-09-11T20:25:13.714Z,100984.81
2022-09-11T20:27:41.851Z,100978.31
2022-09-11T20:30:10.703Z,100984.59
2022-09-11T20:32:39.272Z,100984.34
2022-09-11T20:35:09.625Z,100978.44
2022-09-11T20:37:38.239Z,100965.50
2022-09-11T20:40:07.446Z,100968.59
2022-09-11T20:42:35.716Z,100956.59
2022-09-11T20:45:04.162Z,100949.03
2022-09-11T20:47:32.578Z,100951.94
2022-09-11T20:50:00.858Z,100956.94
2022-09-11T20:52:31.084Z,100946.03
2022-09-11T20:55:00.649Z,100959.00
2022-09-11T20:57:31.117Z,100953.69
2022-09-11T21:00:00.642Z,100956.00
2022-09-11T21:02:39.817Z,100941.31
2022-09-11T21:05:08.336Z,100943.75
2022-09-11T21:07:37.847Z,100942.09
2022-09-11T21:10:07.984Z,100936.19
2022-09-11T21:12:36.270Z,100923.81
2022-09-11T21:15:04.462Z,100921.81
2022-09-11T21:17:32.505Z,100931.44
2022-09-11T21:20:00.667Z,100932.63
2022-09-11T21:22:28.637Z,100932.56
2022-09-11T21:24:58.066Z,100932.75
2022-09-11T21:27:26.004Z,100922.72
2022-09-11T21:29:55.547Z,100922.06
2022-09-11T21:32:23.653Z,100924.78
2022-09-11T21:34:54.676Z,100932.47
2022-09-11T21:37:23.165Z,100924.53
2022-09-11T21:39:51.662Z,100919.94
2022-09-11T21:42:21.412Z,100918.63
2022-09-11T21:44:49.752Z,100909.63
2022-09-11T21:47:18.789Z,100906.44
2022-09-11T21:50:20.585Z,100899.59
2022-09-11T21:52:48.990Z,100901.47
2022-09-11T21:55:17.145Z,100909.06
2022-09-11T21:57:46.601Z,100907.38
2022-09-11T22:00:15.704Z,100909.06
2022-09-11T22:02:43.750Z,100910.72
2022-09-11T22:05:12.976Z,100918.72
2022-09-11T22:07:41.243Z,100909.88
2022-09-11T22:10:10.301Z,100911.75
2022-09-11T22:12:41.398Z,100917.47
2022-09-11T22:15:12.188Z,100915.22
2022-09-11T22:17:40.570Z,100912.50
2022-09-11T22:20:09.241Z,100905.38
2022-09-11T22:22:39.023Z,100908.28
2022-09-11T22:25:10.637Z,100913.53
2022-09-11T22:27:38.737Z,100918.13
2022-09-11T22:30:08.688Z,100919.56
2022-09-11T22:32:38.262Z,100921.03
2022-09-11T22:35:07.047Z,100917.88
2022-09-11T22:37:35.112Z,100917.47
2022-09-11T22:40:04.652Z,100919.94
2022-09-11T22:42:32.743Z,100921.59
2022-09-11T22:45:01.134Z,100923.94
2022-09-11T22:47:29.146Z,100930.69
2022-09-11T22:49:58.688Z,100924.59
2022-09-11T22:52:27.045Z,100927.31
2022-09-11T22:54:55.040Z,100926.31
2022-09-11T22:57:24.534Z,100913.53
2022-09-11T22:59:54.106Z,100905.28
2022-09-11T23:02:22.400Z,100903.97
2022-09-11T23:05:04.222Z,100901.16
2022-09-11T23:07:33.923Z,100888.34
2022-09-11T23:10:02.189Z,100903.41
2022-09-11T23:12:30.282Z,100902.56
2022-09-11T23:14:58.540Z,100892.72
2022-09-11T23:17:26.904Z,100896.69
2022-09-11T23:19:55.125Z,100893.78
2022-09-11T23:22:23.284Z,100891.88
2022-09-11T23:24:52.914Z,100886.81
2022-09-11T23:27:21.231Z,100891.69
2022-09-11T23:29:49.338Z,100888.91
2022-09-11T23:32:17.285Z,100885.81
2022-09-11T23:34:45.258Z,100878.09
2022-09-11T23:37:13.308Z,100882.69
2022-09-11T23:39:41.372Z,100886.91
2022-09-11T23:42:11.252Z,100884.19
2022-09-11T23:44:39.192Z,100881.47
2022-09-11T23:47:07.595Z,100873.91
2022-09-11T23:49:36.629Z,100872.66
2022-09-11T23:52:06.017Z,100872.66
2022-09-11T23:54:33.960Z,100874.75
2022-09-11T23:57:02.154Z,100875.38
2022-09-11T23:59:35.707Z,100874.69
